Time;durP1;ratioP1;P1;durP2;ratioP2;P2;SDS_P1;SDS_P2;PMS_P1;PMS_P2;Temp;Humidity;BMP_temperature;BMP_pressure;BME280_temperature;BME280_humidity;BME280_pressure;Samples;Min_cycle;Max_cycle;Signal;HPM_P1;HPM_P2
2023/08/13 00:01:51;;;;;;;2.67;2.35;;;;;;;20.80;100.00;100396.84;5075318;28;20098;-79
2023/08/13 00:04:17;;;;;;;3.35;2.30;;;;;;;20.72;100.00;100396.78;5075608;28;20107;-79
2023/08/13 00:06:43;;;;;;;5.72;3.33;;;;;;;20.67;100.00;100397.66;5075461;28;20095;-79
2023/08/13 00:09:10;;;;;;;5.30;2.60;;;;;;;20.68;100.00;100412.94;5075684;28;20031;-79
2023/08/13 00:11:35;;;;;;;5.28;2.80;;;;;;;20.67;100.00;100408.47;5074144;28;20060;-81
2023/08/13 00:14:01;;;;;;;4.00;2.53;;;;;;;20.67;100.00;100411.38;5075526;28;20473;-80
2023/08/13 00:16:27;;;;;;;7.68;2.65;;;;;;;20.65;100.00;100411.16;5091119;28;20028;-83
2023/08/13 00:18:54;;;;;;;2.28;2.08;;;;;;;20.67;100.00;100412.16;5075496;28;20418;-82
2023/08/13 00:21:20;;;;;;;2.58;2.17;;;;;;;20.69;100.00;100415.31;5074064;28;20111;-81
2023/08/13 00:23:45;;;;;;;3.95;2.40;;;;;;;20.71;100.00;100409.72;5075598;28;20036;-81
2023/08/13 00:26:12;;;;;;;4.63;2.40;;;;;;;20.73;100.00;100417.88;5075321;28;20062;-83
2023/08/13 00:28:39;;;;;;;4.53;3.00;;;;;;;20.77;100.00;100412.50;5075072;28;20044;-82
2023/08/13 00:31:06;;;;;;;4.45;2.47;;;;;;;20.77;100.00;100406.69;5075343;28;20025;-83
2023/08/13 00:33:37;;;;;;;3.88;2.70;;;;;;;20.80;100.00;100417.19;5091147;28;20119;-83
2023/08/13 00:36:03;;;;;;;4.13;2.42;;;;;;;20.83;100.00;100418.19;5075305;28;20029;-83
2023/08/13 00:38:31;;;;;;;7.32;2.58;;;;;;;20.86;100.00;100419.97;5075378;28;20027;-83
2023/08/13 00:40:56;;;;;;;5.10;2.78;;;;;;;20.87;100.00;100422.31;5075639;28;20052;-84
2023/08/13 00:43:23;;;;;;;7.07;2.55;;;;;;;20.89;100.00;100416.75;5075305;28;20109;-82
2023/08/13 00:45:49;;;;;;;4.80;2.42;;;;;;;20.89;100.00;100428.34;5075069;28;20044;-84
2023/08/13 00:48:14;;;;;;;3.28;2.50;;;;;;;20.86;100.00;100417.84;5072673;28;20432;-84
2023/08/13 00:50:40;;;;;;;3.05;2.35;;;;;;;20.91;100.00;100424.88;5073055;28;20024;-81
2023/08/13 00:53:06;;;;;;;5.38;2.50;;;;;;;20.89;100.00;100422.56;5073103;28;20050;-82
2023/08/13 00:55:33;;;;;;;4.03;2.70;;;;;;;20.90;100.00;100418.28;5072527;28;20058;-83
2023/08/13 00:57:59;;;;;;;4.63;2.72;;;;;;;20.91;100.00;100422.75;5072480;28;20101;-80
2023/08/13 01:00:26;;;;;;;3.67;2.63;;;;;;;20.93;100.00;100417.16;5087988;28;20068;-83
2023/08/13 01:02:52;;;;;;;4.70;2.50;;;;;;;20.92;100.00;100418.50;5071922;28;20474;-82
2023/08/13 01:05:17;;;;;;;3.35;2.28;;;;;;;20.97;100.00;100413.91;5055530;28;20047;-83
2023/08/13 01:07:53;;;;;;;3.50;2.83;;;;;;;20.99;100.00;100417.03;5072365;28;20032;-83
2023/08/13 01:10:28;;;;;;;4.85;2.67;;;;;;;21.00;100.00;100419.38;5071790;28;20037;-79
2023/08/13 01:13:02;;;;;;;4.28;2.55;;;;;;;20.98;100.00;100413.34;5073350;28;20016;-82
2023/08/13 01:15:32;;;;;;;4.25;2.60;;;;;;;21.00;100.00;100421.50;5072828;28;20115;-82
2023/08/13 01:17:58;;;;;;;5.43;3.00;;;;;;;20.97;100.00;100420.50;5088817;28;20028;-83
2023/08/13 01:20:31;;;;;;;4.35;2.78;;;;;;;20.97;100.00;100425.53;5074191;28;20024;-82
2023/08/13 01:22:56;;;;;;;5.40;2.50;;;;;;;20.96;100.00;100424.75;5074346;28;20078;-82
2023/08/13 01:25:23;;;;;;;4.07;2.85;;;;;;;20.98;100.00;100427.09;5072899;28;20116;-83
2023/08/13 01:27:53;;;;;;;3.92;2.63;;;;;;;21.02;100.00;100422.50;5089769;28;20043;-83
2023/08/13 01:30:22;;;;;;;3.40;3.10;;;;;;;21.02;100.00;100418.81;5055917;28;20047;-83
2023/08/13 01:33:04;;;;;;;7.75;3.65;;;;;;;21.05;100.00;100426.38;5089113;28;20526;-82
2023/08/13 01:35:33;;;;;;;6.97;2.70;;;;;;;21.07;100.00;100433.22;5089775;28;20103;-83
2023/08/13 01:37:59;;;;;;;4.65;2.88;;;;;;;21.09;100.00;100430.50;5073784;28;20028;-83
2023/08/13 01:40:25;;;;;;;3.53;2.85;;;;;;;21.11;100.00;100429.94;5073716;28;20554;-82
2023/08/13 01:42:50;;;;;;;5.03;3.20;;;;;;;21.11;100.00;100424.13;5073834;28;20028;-84
2023/08/13 01:45:16;;;;;;;3.65;2.30;;;;;;;21.13;100.00;100427.28;5072560;28;20113;-83
2023/08/13 01:47:41;;;;;;;6.38;2.85;;;;;;;21.12;100.00;100428.63;5089517;28;20025;-82
2023/08/13 01:50:07;;;;;;;4.78;3.22;;;;;;;21.12;100.00;100434.44;5089756;28;20170;-82
2023/08/13 01:52:32;;;;;;;3.75;2.30;;;;;;;21.08;100.00;100431.88;5089347;28;20024;-83
2023/08/13 01:54:58;;;;;;;3.47;2.55;;;;;;;21.06;100.00;100428.75;5073575;28;20060;-81
2023/08/13 01:57:23;;;;;;;4.95;3.17;;;;;;;21.05;100.00;100430.09;5073694;28;20024;-82
2023/08/13 01:59:49;;;;;;;3.58;2.80;;;;;;;21.01;100.00;100423.84;5072401;28;20029;-81
2023/08/13 02:02:14;;;;;;;7.43;2.83;;;;;;;21.03;100.00;100437.81;5073329;28;20052;-81
2023/08/13 02:04:39;;;;;;;3.75;3.17;;;;;;;21.00;100.00;100436.00;5073695;28;20469;-81
2023/08/13 02:07:05;;;;;;;6.00;3.08;;;;;;;20.99;100.00;100431.56;5089288;28;20106;-81
2023/08/13 02:09:30;;;;;;;4.15;3.20;;;;;;;20.96;100.00;100436.38;5073459;28;20028;-82
2023/08/13 02:12:15;;;;;;;3.65;2.58;;;;;;;20.98;100.00;100439.50;5073718;28;20039;-84
2023/08/13 02:14:41;;;;;;;5.20;2.65;;;;;;;20.93;100.00;100443.31;5072820;28;20041;-82
2023/08/13 02:17:06;;;;;;;3.40;3.10;;;;;;;20.88;100.00;100441.31;5072650;28;20028;-83
2023/08/13 02:19:32;;;;;;;5.22;3.13;;;;;;;20.84;100.00;100440.88;5071238;28;20044;-81
2023/08/13 02:21:57;;;;;;;7.88;2.92;;;;;;;20.80;100.00;100454.94;5086604;28;20461;-81
2023/08/13 02:24:23;;;;;;;7.45;3.35;;;;;;;20.72;100.00;100448.28;5071195;28;20052;-82
2023/08/13 02:26:48;;;;;;;4.78;2.83;;;;;;;20.65;100.00;100457.63;5071238;28;20017;-83
2023/08/13 02:29:14;;;;;;;4.82;2.67;;;;;;;20.60;100.00;100452.72;5071267;28;20017;-82
2023/08/13 02:31:39;;;;;;;4.68;3.00;;;;;;;20.54;100.00;100454.97;5086618;28;20545;-82
2023/08/13 02:34:04;;;;;;;3.90;2.63;;;;;;;20.49;100.00;100467.47;5086938;28;20228;-83
2023/08/13 02:36:30;;;;;;;6.07;2.92;;;;;;;20.45;100.00;100464.13;5073327;28;20021;-83
2023/08/13 02:38:55;;;;;;;3.75;3.10;;;;;;;20.39;100.00;100470.84;5073133;28;20016;-83
2023/08/13 02:41:20;;;;;;;4.60;3.05;;;;;;;20.37;100.00;100470.59;5088911;28;20028;-84
2023/08/13 02:43:50;;;;;;;5.85;3.45;;;;;;;20.36;100.00;100471.16;5072623;28;20461;-81
2023/08/13 02:46:16;;;;;;;8.88;3.40;;;;;;;20.30;100.00;100468.34;5073051;28;20028;-83
2023/08/13 02:48:41;;;;;;;4.20;3.20;;;;;;;20.32;100.00;100479.41;5071964;28;20460;-83
2023/08/13 02:51:07;;;;;;;5.72;3.40;;;;;;;20.31;100.00;100472.03;5071717;28;20020;-83
2023/08/13 02:53:32;;;;;;;4.18;3.03;;;;;;;20.27;100.00;100478.19;5077690;28;20021;-82
2023/08/13 02:55:57;;;;;;;5.03;3.15;;;;;;;20.22;100.00;100470.38;5096014;28;20032;-82
2023/08/13 02:58:23;;;;;;;3.97;3.25;;;;;;;20.20;100.00;100467.22;5078786;28;20028;-82
2023/08/13 03:00:48;;;;;;;5.75;3.28;;;;;;;20.15;100.00;100465.22;5073379;28;20016;-82
2023/08/13 03:03:13;;;;;;;5.43;3.45;;;;;;;20.18;100.00;100474.94;5073600;28;20374;-82
2023/08/13 03:05:39;;;;;;;6.78;3.28;;;;;;;20.12;100.00;100477.94;5073213;28;20366;-82
2023/08/13 03:08:04;;;;;;;3.92;3.00;;;;;;;20.09;100.00;100473.28;5073115;28;20024;-81
2023/08/13 03:10:30;;;;;;;5.95;3.60;;;;;;;20.09;100.00;100484.88;5073445;28;20050;-82
2023/08/13 03:12:55;;;;;;;11.23;3.08;;;;;;;20.08;100.00;100491.22;5073430;28;20028;-81
2023/08/13 03:15:21;;;;;;;5.43;3.15;;;;;;;20.02;100.00;100482.63;5073452;28;20025;-82
2023/08/13 03:17:46;;;;;;;4.63;3.08;;;;;;;19.98;100.00;100496.69;5073371;28;20036;-83
2023/08/13 03:20:12;;;;;;;3.47;3.13;;;;;;;19.98;100.00;100499.56;5073197;28;20033;-80
2023/08/13 03:22:37;;;;;;;6.63;3.00;;;;;;;19.94;100.00;100502.03;5072902;28;20032;-82
2023/08/13 03:25:03;;;;;;;4.53;2.55;;;;;;;19.94;100.00;100502.03;5074732;28;20103;-83
2023/08/13 03:27:28;;;;;;;3.83;3.10;;;;;;;19.95;100.00;100492.00;5077054;28;20133;-82
2023/08/13 03:29:54;;;;;;;3.70;2.80;;;;;;;19.93;100.00;100494.63;5076709;28;20037;-81
2023/08/13 03:32:20;;;;;;;5.22;3.20;;;;;;;19.91;100.00;100498.06;5076574;28;20016;-83
2023/08/13 03:34:45;;;;;;;2.72;2.53;;;;;;;19.93;100.00;100506.22;5076436;28;20032;-83
2023/08/13 03:37:11;;;;;;;5.80;2.65;;;;;;;19.91;100.00;100500.97;5076166;28;20032;-83
2023/08/13 03:39:36;;;;;;;5.50;2.92;;;;;;;19.95;100.00;100510.16;5076392;28;20025;-83
2023/08/13 03:42:01;;;;;;;5.70;2.85;;;;;;;19.95;100.00;100504.34;5075135;28;20024;-82
2023/08/13 03:44:27;;;;;;;4.45;2.70;;;;;;;19.98;100.00;100504.59;5075039;28;20040;-83
2023/08/13 03:46:52;;;;;;;4.75;2.70;;;;;;;20.05;100.00;100516.34;5092196;28;20036;-81
2023/08/13 03:49:18;;;;;;;3.55;2.60;;;;;;;20.08;100.00;100503.63;5075974;28;20049;-83
2023/08/13 03:51:43;;;;;;;3.60;2.60;;;;;;;20.18;100.00;100509.78;5092043;28;20036;-81
2023/08/13 03:54:09;;;;;;;7.20;2.75;;;;;;;20.26;100.00;100504.88;5075984;28;20358;-82
2023/08/13 03:56:34;;;;;;;2.75;2.40;;;;;;;20.33;100.00;100507.91;5074643;28;20032;-82
2023/08/13 03:58:59;;;;;;;5.22;2.53;;;;;;;20.40;100.00;100503.53;5075796;28;20028;-82
2023/08/13 04:01:25;;;;;;;5.07;2.60;;;;;;;20.48;100.00;100500.75;5075891;28;20088;-81
2023/08/13 04:03:50;;;;;;;5.57;2.60;;;;;;;20.56;100.00;100510.34;5075784;28;20462;-82
2023/08/13 04:06:15;;;;;;;4.60;2.50;;;;;;;20.57;100.00;100498.19;5075682;28;20027;-82
2023/08/13 04:08:41;;;;;;;6.40;2.50;;;;;;;20.63;100.00;100501.75;5075760;28;20111;-83
2023/08/13 04:11:06;;;;;;;8.45;2.63;;;;;;;20.71;100.00;100499.78;5075917;28;20074;-83
2023/08/13 04:13:31;;;;;;;5.55;2.10;;;;;;;20.77;100.00;100512.06;5076176;28;20078;-83
2023/08/13 04:15:58;;;;;;;5.28;3.13;;;;;;;20.76;100.00;100501.78;5075983;28;20112;-82
2023/08/13 04:18:23;;;;;;;3.53;2.72;;;;;;;20.91;100.00;100506.22;5090158;28;20382;-80
2023/08/13 04:20:49;;;;;;;4.68;2.72;;;;;;;20.95;100.00;100507.44;5074541;28;20028;-82
2023/08/13 04:23:14;;;;;;;4.80;2.72;;;;;;;21.01;100.00;100505.19;5073240;28;20032;-81
2023/08/13 04:25:39;;;;;;;3.85;2.60;;;;;;;21.07;100.00;100499.28;5073478;28;20025;-82
2023/08/13 04:28:05;;;;;;;4.35;2.85;;;;;;;21.12;100.00;100496.25;5073299;28;20469;-80
2023/08/13 04:30:31;;;;;;;3.15;2.55;;;;;;;21.17;100.00;100501.16;5073289;28;20040;-82
2023/08/13 04:32:56;;;;;;;7.05;2.90;;;;;;;21.21;100.00;100504.50;5073183;28;20016;-81
2023/08/13 04:35:22;;;;;;;2.45;2.25;;;;;;;21.14;100.00;100484.03;5073584;28;20031;-82
2023/08/13 04:37:49;;;;;;;2.83;2.28;;;;;;;21.24;100.00;100494.63;5073476;28;20107;-82
2023/08/13 04:40:15;;;;;;;3.63;2.20;;;;;;;21.29;100.00;100501.66;5090842;28;20040;-81
2023/08/13 04:42:41;;;;;;;4.30;2.78;;;;;;;21.29;100.00;100498.00;5075136;28;20032;-82
2023/08/13 04:45:07;;;;;;;3.70;2.55;;;;;;;21.31;100.00;100504.00;5074696;28;20116;-83
2023/08/13 04:47:33;;;;;;;4.57;2.60;;;;;;;21.31;100.00;100498.97;5090710;28;20056;-83
2023/08/13 04:49:58;;;;;;;2.33;1.90;;;;;;;21.32;100.00;100515.09;5074903;28;20032;-81
2023/08/13 04:52:24;;;;;;;3.35;2.30;;;;;;;21.24;100.00;100491.72;5074858;28;20072;-84
2023/08/13 04:54:50;;;;;;;3.55;2.38;;;;;;;21.35;100.00;100510.25;5074458;28;20036;-83
2023/08/13 04:57:15;;;;;;;3.75;2.33;;;;;;;21.37;100.00;100522.91;5074855;28;20028;-83
2023/08/13 04:59:45;;;;;;;6.07;2.35;;;;;;;21.42;100.00;100524.13;5074889;28;20366;-82
2023/08/13 05:02:11;;;;;;;4.20;2.30;;;;;;;21.45;100.00;100523.00;5074110;28;20473;-82
2023/08/13 05:04:37;;;;;;;3.88;2.88;;;;;;;21.47;100.00;100524.00;5074235;28;20044;-82
2023/08/13 05:07:04;;;;;;;4.90;2.42;;;;;;;21.48;100.00;100519.75;5074886;28;20588;-82
2023/08/13 05:09:31;;;;;;;6.75;2.42;;;;;;;21.55;100.00;100527.00;5073274;28;20083;-82
2023/08/13 05:11:58;;;;;;;3.30;2.22;;;;;;;21.61;100.00;100534.25;5073411;28;20029;-82
2023/08/13 05:14:25;;;;;;;3.70;2.30;;;;;;;21.65;100.00;100536.81;5090197;28;20025;-82
2023/08/13 05:16:52;;;;;;;6.15;1.92;;;;;;;21.68;100.00;100542.25;5073174;28;20032;-81
2023/08/13 05:19:17;;;;;;;3.22;2.10;;;;;;;21.73;100.00;100534.75;5089012;28;20036;-83
2023/08/13 05:21:44;;;;;;;4.47;2.45;;;;;;;21.80;100.00;100539.88;5073026;28;20031;-82
2023/08/13 05:24:12;;;;;;;5.05;2.40;;;;;;;21.90;100.00;100538.03;5073021;28;20024;-82
2023/08/13 05:26:38;;;;;;;4.22;2.58;;;;;;;21.97;100.00;100542.38;5074405;28;20016;-83
2023/08/13 05:29:12;;;;;;;4.95;1.73;;;;;;;22.12;100.00;100553.38;5072944;28;20050;-83
2023/08/13 05:31:39;;;;;;;4.20;2.33;;;;;;;22.25;100.00;100547.50;5075485;28;20082;-83
2023/08/13 05:34:04;;;;;;;3.70;1.90;;;;;;;22.37;100.00;100552.44;5089788;28;20028;-82
2023/08/13 05:36:29;;;;;;;4.50;2.45;;;;;;;22.52;100.00;100548.84;5073958;28;20431;-81
2023/08/13 05:38:57;;;;;;;3.85;2.47;;;;;;;22.71;100.00;100543.56;5074230;28;20071;-84
2023/08/13 05:41:24;;;;;;;4.00;2.50;;;;;;;22.79;100.00;100529.03;5089793;28;20028;-83
2023/08/13 05:43:49;;;;;;;2.80;2.00;;;;;;;23.06;100.00;100550.81;5074497;28;20024;-85
2023/08/13 05:46:15;;;;;;;3.30;2.03;;;;;;;23.21;100.00;100553.00;5074078;28;20025;-82
2023/08/13 05:48:42;;;;;;;2.67;2.22;;;;;;;23.26;100.00;100544.06;5088580;28;20531;-87
2023/08/13 05:51:10;;;;;;;5.63;2.55;;;;;;;23.26;100.00;100549.91;5089598;28;20032;-85
2023/08/13 05:53:35;;;;;;;4.68;2.20;;;;;;;23.25;100.00;100553.41;5074150;28;20028;-83
2023/08/13 05:56:01;;;;;;;3.30;1.98;;;;;;;23.18;100.00;100557.06;5073915;28;20031;-82
2023/08/13 05:58:27;;;;;;;4.20;2.50;;;;;;;23.05;100.00;100557.19;5074295;28;20025;-83
2023/08/13 06:00:53;;;;;;;2.55;1.90;;;;;;;22.93;100.00;100569.19;5075049;28;20112;-83
2023/08/13 06:03:19;;;;;;;4.60;2.40;;;;;;;22.80;100.00;100566.34;5076242;28;20044;-79
2023/08/13 06:05:47;;;;;;;4.85;2.40;;;;;;;22.74;100.00;100564.94;5073433;28;20026;-81
2023/08/13 06:08:14;;;;;;;4.07;1.95;;;;;;;22.68;100.00;100561.41;5075379;28;20031;-79
2023/08/13 06:10:41;;;;;;;4.40;2.75;;;;;;;22.65;100.00;100565.47;5075102;28;20021;-79
2023/08/13 06:13:06;;;;;;;2.33;2.03;;;;;;;22.49;100.00;100571.19;5088532;28;20059;-81
2023/08/13 06:15:32;;;;;;;4.10;2.53;;;;;;;22.39;100.00;100575.97;5072142;28;20532;-77
2023/08/13 06:17:58;;;;;;;3.22;2.55;;;;;;;22.39;100.00;100575.16;5073726;28;20025;-77
2023/08/13 06:20:25;;;;;;;3.28;2.15;;;;;;;22.42;100.00;100571.88;5073490;28;20073;-81
2023/08/13 06:22:51;;;;;;;8.55;2.95;;;;;;;22.38;100.00;100559.03;5073907;28;20029;-79
2023/08/13 06:25:19;;;;;;;10.82;2.70;;;;;;;22.41;100.00;100567.44;5055535;28;20028;-84
2023/08/13 06:27:47;;;;;;;3.55;2.45;;;;;;;22.49;100.00;100573.31;5074680;28;20099;-78
2023/08/13 06:30:14;;;;;;;4.90;2.50;;;;;;;22.51;100.00;100570.63;5074558;28;20086;-79
2023/08/13 06:32:40;;;;;;;13.88;3.45;;;;;;;22.61;100.00;100567.97;5089729;28;20016;-80
2023/08/13 06:35:06;;;;;;;9.20;3.15;;;;;;;22.82;100.00;100568.69;5072380;28;20020;-76
2023/08/13 06:37:32;;;;;;;4.28;2.45;;;;;;;23.31;100.00;100574.41;5073360;28;20040;-78
2023/08/13 06:39:58;;;;;;;2.97;1.70;;;;;;;24.18;100.00;100574.31;5072168;28;20111;-77
2023/08/13 06:42:25;;;;;;;3.70;2.00;;;;;;;25.39;100.00;100570.44;5073214;28;20468;-78
2023/08/13 06:44:53;;;;;;;3.25;2.25;;;;;;;26.75;100.00;100568.78;5072540;28;20476;-80
2023/08/13 06:47:19;;;;;;;8.18;2.05;;;;;;;28.02;100.00;100570.75;5073802;28;20031;-78
2023/08/13 06:49:45;;;;;;;2.53;1.80;;;;;;;29.23;100.00;100561.97;5075704;28;20024;-78
2023/08/13 06:52:10;;;;;;;2.22;2.03;;;;;;;30.32;100.00;100562.72;5072329;28;20053;-77
2023/08/13 06:54:35;;;;;;;3.15;2.15;;;;;;;31.23;98.15;100569.19;5074689;28;20028;-79
2023/08/13 06:57:01;;;;;;;2.67;2.08;;;;;;;32.04;96.92;100578.38;5054842;28;20021;-78
2023/08/13 06:59:27;;;;;;;2.85;2.00;;;;;;;32.76;92.33;100562.97;5054094;28;20470;-77
2023/08/13 07:01:55;;;;;;;4.07;2.03;;;;;;;33.60;87.61;100585.16;5055413;28;20048;-77
2023/08/13 07:04:20;;;;;;;3.42;2.67;;;;;;;34.48;83.06;100588.00;5057070;28;20054;-76
2023/08/13 07:06:45;;;;;;;5.18;2.10;;;;;;;34.84;72.11;100601.91;5056703;28;20060;-76
2023/08/13 07:09:13;;;;;;;2.10;1.90;;;;;;;34.65;64.79;100609.06;5055865;28;20382;-77
2023/08/13 07:11:40;;;;;;;2.33;1.73;;;;;;;34.40;74.91;100594.28;5056759;28;20051;-75
2023/08/13 07:14:07;;;;;;;2.35;1.90;;;;;;;34.53;72.66;100599.44;5056672;28;20055;-75
2023/08/13 07:16:34;;;;;;;4.18;2.33;;;;;;;34.38;69.54;100600.09;5056692;28;20470;-76
2023/08/13 07:19:03;;;;;;;3.72;2.10;;;;;;;34.48;72.40;100606.59;5056890;28;20036;-78
2023/08/13 07:21:29;;;;;;;3.33;2.05;;;;;;;34.83;68.48;100618.19;5057250;28;20049;-79
2023/08/13 07:23:54;;;;;;;3.55;2.30;;;;;;;34.59;64.96;100616.84;5056693;28;20024;-76
2023/08/13 07:26:21;;;;;;;3.70;2.33;;;;;;;34.27;69.42;100610.63;5056049;28;20137;-74
2023/08/13 07:28:47;;;;;;;3.65;2.05;;;;;;;34.38;70.25;100599.31;5056714;28;20036;-76
2023/08/13 07:31:14;;;;;;;8.25;2.42;;;;;;;34.70;68.10;100610.06;5056329;28;20026;-75
2023/08/13 07:33:40;;;;;;;2.45;1.77;;;;;;;34.87;68.11;100606.53;5056345;28;20091;-78
2023/08/13 07:36:06;;;;;;;3.40;1.83;;;;;;;35.10;65.33;100617.47;5046925;28;20047;-78
2023/08/13 07:38:32;;;;;;;3.45;2.10;;;;;;;35.40;63.20;100616.06;5080206;28;20068;-78
2023/08/13 07:40:58;;;;;;;2.58;2.28;;;;;;;35.73;63.83;100614.78;5094909;28;20068;-76
2023/08/13 07:43:25;;;;;;;5.30;3.22;;;;;;;35.81;55.82;100615.19;5095878;28;20082;-76
2023/08/13 07:45:51;;;;;;;4.80;2.33;;;;;;;35.47;60.74;100614.94;5094678;28;20040;-77
2023/08/13 07:48:16;;;;;;;4.43;2.78;;;;;;;35.45;59.14;100611.88;5095708;28;20031;-79
2023/08/13 07:50:42;;;;;;;7.13;2.00;;;;;;;35.57;62.17;100615.50;5094416;28;20469;-82
2023/08/13 07:53:07;;;;;;;6.50;2.30;;;;;;;35.90;58.85;100617.91;5095790;28;20059;-79
2023/08/13 07:55:33;;;;;;;2.15;1.83;;;;;;;35.57;60.61;100614.72;5095089;28;20044;-79
2023/08/13 07:57:58;;;;;;;2.80;2.42;;;;;;;35.18;60.71;100603.78;5095646;28;20055;-79
2023/08/13 08:00:24;;;;;;;2.20;2.10;;;;;;;34.77;63.34;100621.59;5095123;28;20583;-77
2023/08/13 08:02:54;;;;;;;3.80;2.28;;;;;;;34.23;67.45;100606.66;5110822;28;20496;-77
2023/08/13 08:05:22;;;;;;;3.75;1.90;;;;;;;33.90;73.30;100604.78;5094243;28;20027;-78
2023/08/13 08:07:48;;;;;;;2.10;1.90;;;;;;;33.88;74.95;100607.63;5094171;28;20024;-78
2023/08/13 08:10:13;;;;;;;4.35;1.95;;;;;;;33.82;72.40;100592.41;5110881;28;20035;-79
2023/08/13 08:12:40;;;;;;;2.30;2.08;;;;;;;33.92;74.68;100607.06;5110370;28;20492;-78
2023/08/13 08:15:06;;;;;;;3.50;2.08;;;;;;;33.96;75.79;100607.31;5095241;28;20024;-79
2023/08/13 08:17:35;;;;;;;3.75;2.00;;;;;;;33.96;74.55;100604.34;5111001;28;20044;-79
2023/08/13 08:20:00;;;;;;;2.40;1.75;;;;;;;34.21;71.11;100604.34;5095245;28;20361;-81
2023/08/13 08:22:27;;;;;;;2.47;2.17;;;;;;;33.79;72.74;100605.59;5094893;28;20074;-80
2023/08/13 08:24:54;;;;;;;2.50;2.30;;;;;;;33.44;74.93;100616.81;5095163;28;20035;-83
2023/08/13 08:27:20;;;;;;;2.75;2.00;;;;;;;33.43;81.17;100607.13;5111556;28;20465;-90
2023/08/13 08:29:45;;;;;;;2.95;1.83;;;;;;;34.13;78.14;100606.03;5095361;28;20040;-82
2023/08/13 08:32:13;;;;;;;1.85;1.75;;;;;;;34.27;72.86;100604.69;5094980;28;20039;-83
2023/08/13 08:34:40;;;;;;;2.20;2.00;;;;;;;34.32;71.91;100605.69;5094064;28;20032;-82
2023/08/13 08:37:10;;;;;;;3.42;2.53;;;;;;;34.41;78.61;100604.72;5095313;28;20032;-82
2023/08/13 08:39:36;;;;;;;2.88;2.20;;;;;;;34.92;72.69;100607.50;5095299;28;20107;-80
2023/08/13 08:42:03;;;;;;;2.35;2.08;;;;;;;35.33;71.91;100596.38;5094092;28;20032;-84
2023/08/13 08:44:30;;;;;;;4.72;2.30;;;;;;;35.73;71.37;100594.75;5111129;28;20023;-80
2023/08/13 08:46:56;;;;;;;2.58;1.88;;;;;;;36.24;65.88;100606.22;5094211;28;20020;-80
2023/08/13 08:49:23;;;;;;;4.47;2.00;;;;;;;36.83;62.67;100603.81;5093514;28;20119;-80
2023/08/13 08:51:51;;;;;;;3.38;2.50;;;;;;;37.22;57.27;100603.38;5091614;28;20040;-78
2023/08/13 08:54:18;;;;;;;2.53;2.17;;;;;;;37.35;55.41;100611.41;5098375;28;20043;-78
2023/08/13 08:56:44;;;;;;;2.92;2.10;;;;;;;37.45;55.49;100608.09;5089867;28;20059;-80
2023/08/13 08:59:16;;;;;;;2.20;1.77;;;;;;;37.42;52.22;100603.50;5086705;28;20051;-80
2023/08/13 09:01:41;;;;;;;3.67;1.67;;;;;;;37.16;52.18;100609.03;5045148;28;20044;-79
2023/08/13 09:04:08;;;;;;;3.03;1.83;;;;;;;37.12;53.80;100596.94;5071318;28;20036;-79
2023/08/13 09:06:54;;;;;;;2.03;1.92;;;;;;;37.28;51.47;100604.38;5085370;28;20047;-80
2023/08/13 09:09:22;;;;;;;4.45;1.90;;;;;;;36.90;51.53;100602.66;5089293;28;20036;-79
2023/08/13 09:11:47;;;;;;;2.78;2.08;;;;;;;36.23;56.78;100601.69;5093192;28;20062;-80
2023/08/13 09:14:15;;;;;;;2.30;1.75;;;;;;;35.87;59.84;100594.69;5092067;28;20039;-80
2023/08/13 09:16:54;;;;;;;2.58;2.03;;;;;;;35.53;57.06;100593.69;5093395;28;20115;-80
2023/08/13 09:19:22;;;;;;;1.52;1.42;;;;;;;34.96;65.00;100584.72;5094814;28;20059;-80
2023/08/13 09:21:49;;;;;;;1.85;1.70;;;;;;;34.94;66.38;100580.91;5110284;28;20112;-78
2023/08/13 09:24:14;;;;;;;3.72;2.03;;;;;;;35.20;63.98;100585.31;5093952;28;20028;-79
2023/08/13 09:26:41;;;;;;;2.28;2.05;;;;;;;35.31;64.05;100592.53;5094330;28;20057;-76
2023/08/13 09:29:09;;;;;;;3.10;2.08;;;;;;;35.12;62.96;100590.81;5092536;28;20049;-79
2023/08/13 09:31:35;;;;;;;2.85;1.80;;;;;;;34.83;61.89;100590.69;5092312;28;20095;-78
2023/08/13 09:34:00;;;;;;;3.42;1.95;;;;;;;34.44;65.89;100587.78;5073839;28;20139;-79
2023/08/13 09:36:27;;;;;;;1.50;1.40;;;;;;;34.04;66.21;100586.25;5090678;28;20404;-79
2023/08/13 09:38:52;;;;;;;2.13;1.92;;;;;;;33.53;71.57;100575.13;5092084;28;20031;-79
2023/08/13 09:41:19;;;;;;;16.95;12.88;;;;;;;33.29;73.78;100584.78;5090731;28;20039;-79
2023/08/13 09:43:47;;;;;;;43.55;28.77;;;;;;;32.82;75.13;100575.22;5107486;28;20526;-79
2023/08/13 09:46:19;;;;;;;20.58;15.65;;;;;;;32.24;78.64;100570.81;5092240;28;20422;-78
2023/08/13 09:48:46;;;;;;;8.60;6.55;;;;;;;31.64;83.42;100575.66;5092945;28;20085;-79
2023/08/13 09:51:13;;;;;;;4.25;2.50;;;;;;;31.39;91.88;100558.47;5091857;28;20166;-79
2023/08/13 09:53:46;;;;;;;2.10;1.90;;;;;;;31.53;91.06;100561.59;5091718;28;20058;-79
2023/08/13 09:56:12;;;;;;;2.88;1.88;;;;;;;31.58;87.84;100572.28;5107783;28;20032;-79
2023/08/13 09:58:38;;;;;;;3.00;2.00;;;;;;;31.46;84.68;100571.47;5091094;28;20299;-79
2023/08/13 10:01:03;;;;;;;2.55;2.03;;;;;;;31.37;89.46;100564.25;5092000;28;20099;-79
2023/08/13 10:03:29;;;;;;;2.20;1.90;;;;;;;31.47;92.52;100556.06;5090835;28;20051;-79
2023/08/13 10:05:55;;;;;;;2.15;1.73;;;;;;;31.58;92.06;100551.59;5094309;28;20024;-80
2023/08/13 10:08:21;;;;;;;3.17;1.80;;;;;;;31.62;88.81;100561.50;5093138;28;20020;-79
2023/08/13 10:10:46;;;;;;;3.42;1.80;;;;;;;31.60;87.41;100561.38;5109704;28;20093;-78
2023/08/13 10:13:12;;;;;;;1.92;1.65;;;;;;;31.54;87.93;100563.16;5110130;28;20027;-79
2023/08/13 10:15:38;;;;;;;3.85;1.70;;;;;;;31.59;91.29;100565.75;5109439;28;20530;-79
2023/08/13 10:18:04;;;;;;;5.18;2.15;;;;;;;31.74;89.84;100561.59;5109550;28;20033;-81
2023/08/13 10:20:29;;;;;;;4.70;1.90;;;;;;;32.04;86.97;100566.53;5109437;28;20027;-80
2023/08/13 10:22:55;;;;;;;2.15;1.95;;;;;;;32.23;83.32;100562.59;5109431;28;20405;-80
2023/08/13 10:25:28;;;;;;;4.32;2.30;;;;;;;32.19;82.94;100574.94;5093927;28;20031;-80
2023/08/13 10:27:54;;;;;;;2.00;1.65;;;;;;;31.93;82.27;100566.50;5093948;28;20020;-80
2023/08/13 10:30:20;;;;;;;2.92;2.50;;;;;;;31.61;85.92;100568.06;5109326;28;20028;-81
2023/08/13 10:32:54;;;;;;;2.92;1.95;;;;;;;31.30;87.96;100566.00;5109740;28;20092;-80
2023/08/13 10:35:21;;;;;;;2.50;2.03;;;;;;;31.03;88.41;100562.63;5095889;28;20031;-80
2023/08/13 10:37:51;;;;;;;4.43;2.17;;;;;;;30.73;95.35;100557.56;5097624;28;20133;-80
2023/08/13 10:40:18;;;;;;;1.83;1.70;;;;;;;30.53;95.99;100556.88;5097463;28;20389;-79
2023/08/13 10:42:43;;;;;;;4.03;2.20;;;;;;;30.54;100.00;100561.38;5097793;28;20028;-79
2023/08/13 10:45:10;;;;;;;2.38;2.08;;;;;;;30.75;100.00;100555.53;5097492;28;20077;-79
2023/08/13 10:47:39;;;;;;;2.10;1.90;;;;;;;31.05;100.00;100562.00;5096124;28;20032;-79
2023/08/13 10:50:06;;;;;;;1.65;1.55;;;;;;;31.31;97.74;100566.78;5097371;28;20024;-79
2023/08/13 10:52:32;;;;;;;2.40;1.90;;;;;;;31.30;92.95;100571.91;5097098;28;20074;-80
2023/08/13 10:54:58;;;;;;;2.60;1.70;;;;;;;31.20;92.39;100561.59;5097539;28;20024;-81
2023/08/13 10:57:28;;;;;;;2.22;2.00;;;;;;;30.97;89.90;100565.16;5096160;28;20077;-80
2023/08/13 10:59:54;;;;;;;1.92;1.83;;;;;;;30.70;92.43;100556.66;5097447;28;20035;-79
2023/08/13 11:02:19;;;;;;;2.92;1.77;;;;;;;30.62;93.01;100555.25;5095626;28;20044;-79
2023/08/13 11:04:46;;;;;;;2.70;1.98;;;;;;;30.57;93.81;100554.97;5097446;28;20051;-80
2023/08/13 11:07:15;;;;;;;1.95;1.85;;;;;;;30.46;93.14;100564.53;5078900;28;20035;-80
2023/08/13 11:09:45;;;;;;;4.70;1.77;;;;;;;30.33;92.14;100558.38;5097337;28;20020;-80
2023/08/13 11:12:11;;;;;;;2.65;1.88;;;;;;;30.22;97.46;100550.22;5095819;28;20038;-80
2023/08/13 11:14:37;;;;;;;1.85;1.73;;;;;;;30.26;98.15;100550.50;5096949;28;20027;-81
2023/08/13 11:17:03;;;;;;;3.20;2.00;;;;;;;30.27;95.97;100549.84;5095670;28;20102;-79